Terminal Aerodrome Forecast
Issued by NWS

Home | Current Version | Previous Version | Text Only | Print | Product List | Glossary On
Versions: 1 2 3 4 5 6 7 8 9 10 11 12 13 14 15 16
000
FTUS46 KMTR 192300
TAFSNS
TAF
KSNS 192340Z 2000/2024 30012KT P6SM SCT012
     FM200100 30010KT P6SM BKN011
     FM200200 30008KT P6SM OVC010
     FM200800 VRB03KT P6SM OVC008
     FM201400 VRB03KT 4SM BR OVC005
     FM201800 29006KT P6SM SCT012=

USA.gov is the U.S. government's official web portal to all federal, state and local government web resources and services.